Simmons Army Air Field
KFBG : now visible

Airfield :











YOU CAN JOIN US ON...

 
LOGIN :

Register | Disclaimer

   EN    FR    IT 

 









Legend :    VFR   Marginal VFR   IFR   Intensive IFR   Very Intensive IFR
Visi :
Ceiling :
>= 8 km
>= 3000ft
5 to 8 km
1000 to 3000 ft
1500m to 5 km
500 to 1000 ft
800 to 1500m
200 to 500 ft
< 800m
< 200 ft
Symbols :   Thunderstorms  Fog  Heavy snow  Heavy precipitations  Wind > 20 kt






- Airport Elevation : 244 ft


KFBG - Simmons Army Air Field

CURRENT METAR :
  • 191755Z AUTO 10009KT 10SM -RA BKN012 BKN018 24/22 A3006 RMK AO2 RAB41 SLP181 P0000 6//// T02370216 10244 20209 $

EXPIRED METARs :
  • 191741Z AUTO 10008KT 10SM -RA BKN015 BKN021 24/21 A3006 RMK AO2 RAB41 CIG 015V021 BKN015 V SCT SLP180 $
  • 191655Z 09006KT 7SM SCT040 OVC080 24/20 A3008 RMK SLP187 AO2 WND DATA ESTMD ALTSG ESTMD $
  • 191556Z 05006KT 6SM -RA BKN060 OVC080 23/20 A3007 RMK SLP184 AO2 RAB56 WND DATA ESTMD ALTSG ESTMD PNO $

TAF TAF KFBG
Valid from the 19 at 17:00 until the 20 at 23:00 UTC


191700Z 1917/2023 05006KT 8000 -RA BKN015 BKN085 QNH3007INS
BECMG 1918/1919 09006KT 6000 RA BKN009 QNH3007INS
TEMPO 2004/2006 03010G15KT 2400 +TSRA FEW002 BKN006CB OVC017
BECMG 2005/2006 03006KT 4800 -RA BR OVC002 QNH3008INS
BECMG 2009/2010 VRB06KT 4800 BR OVC002 QNH3009INS
BECMG 2014/2015 02006KT 9999 NSW BKN006 OVC018 QNH3009INS
BECMG 2015/2016 36006KT 9999 BKN018 BKN035 QNH3009INS
BECMG 2021/2022 35006KT 9999 BKN035 QNH3008INS TX27/1922Z TN21/1918Z
KZDC FIR / North America



MET'MAP, your aeronautical weather chart ! - Copyright ORBIFLY December 2007 - Disclaimer

ORBIFLY MET'MAP TEAM :

Programming & Development : Alexandra Zaïnal
Original concept : Baudouin d'Aumeries
Technical & hardware support : Manuel Goepfert
Assistance : Marc-Olivier Méhu




SOURCES & CREDITS :

   NOAA       Earth
Advisory